createdAt,value
2023-02-11T00:02:16.866Z,14.93
2023-02-11T00:05:06.248Z,15.27
2023-02-11T00:07:54.734Z,14.53
2023-02-11T00:10:46.417Z,12.90
2023-02-11T00:13:35.164Z,13.97
2023-02-11T00:16:25.052Z,13.40
2023-02-11T00:19:13.536Z,14.53
2023-02-11T00:22:02.004Z,15.47
2023-02-11T00:24:50.522Z,13.07
2023-02-11T00:27:39.039Z,12.60
2023-02-11T00:30:27.579Z,13.90
2023-02-11T00:33:17.422Z,14.00
2023-02-11T00:36:06.978Z,13.13
2023-02-11T00:38:56.749Z,13.63
2023-02-11T00:41:45.245Z,13.37
2023-02-11T00:44:33.696Z,13.00
2023-02-11T00:47:22.138Z,13.20
2023-02-11T00:50:12.167Z,12.23
2023-02-11T00:53:00.614Z,12.87
2023-02-11T00:55:49.355Z,12.10
2023-02-11T00:58:38.419Z,13.27
2023-02-11T01:01:26.972Z,11.67
2023-02-11T01:11:12.890Z,12.43
2023-02-11T01:14:01.607Z,13.07
2023-02-11T01:16:50.050Z,12.00
2023-02-11T01:19:39.008Z,11.53
2023-02-11T01:22:27.515Z,11.70
2023-02-11T01:25:17.518Z,11.70
2023-02-11T01:28:06.509Z,10.53
2023-02-11T01:30:55.897Z,11.37
2023-02-11T01:33:44.464Z,11.27
2023-02-11T01:36:32.990Z,10.67
2023-02-11T01:39:21.440Z,10.97
2023-02-11T01:42:16.573Z,11.50
2023-02-11T01:45:56.106Z,11.10
2023-02-11T01:48:48.661Z,11.10
2023-02-11T01:51:40.406Z,11.57
2023-02-11T01:54:50.931Z,11.30
2023-02-11T01:57:44.325Z,9.70
2023-02-11T02:00:36.778Z,10.20
2023-02-11T02:03:26.131Z,10.27
2023-02-11T02:06:20.733Z,9.73
2023-02-11T02:09:12.930Z,10.30
2023-02-11T02:12:01.754Z,9.43
2023-02-11T02:14:51.593Z,9.03
2023-02-11T02:17:47.912Z,10.50
2023-02-11T03:43:29.099Z,8.23
2023-02-11T03:46:21.244Z,10.00
2023-02-11T03:49:14.304Z,9.80
2023-02-11T03:52:06.045Z,9.10
2023-02-11T03:54:59.280Z,10.43
2023-02-11T03:57:48.474Z,9.87
2023-02-11T04:00:41.023Z,10.23
2023-02-11T04:03:29.949Z,10.17
2023-02-11T04:06:18.388Z,9.63
2023-02-11T04:09:07.162Z,10.27
2023-02-11T04:11:55.712Z,9.73
2023-02-11T04:14:44.161Z,10.03
2023-02-11T04:17:33.986Z,9.87
2023-02-11T04:20:22.811Z,9.27
2023-02-11T04:23:11.512Z,10.47
2023-02-11T04:26:00.001Z,9.83
2023-02-11T04:28:48.467Z,9.70
2023-02-11T04:31:36.958Z,9.20
2023-02-11T04:34:26.857Z,9.87
2023-02-11T04:37:15.418Z,9.67
2023-02-11T04:40:04.691Z,9.97
2023-02-11T04:42:53.101Z,8.53
2023-02-11T04:45:41.615Z,9.40
2023-02-11T04:48:30.077Z,9.70
2023-02-11T04:51:19.934Z,9.13
2023-02-11T04:54:08.570Z,10.13
2023-02-11T04:56:57.072Z,9.10
2023-02-11T04:59:45.601Z,9.93
2023-02-11T05:02:34.012Z,8.57
2023-02-11T05:05:22.482Z,10.20
2023-02-11T05:08:12.940Z,10.53
2023-02-11T05:11:02.263Z,10.00
2023-02-11T05:13:50.838Z,10.83
2023-02-11T05:16:39.425Z,9.17
2023-02-11T05:19:28.069Z,8.93
2023-02-11T05:22:16.523Z,8.83
2023-02-11T05:25:07.122Z,8.97
2023-02-11T05:27:55.626Z,9.20
2023-02-11T05:30:44.146Z,7.93
2023-02-11T05:33:33.082Z,8.57
2023-02-11T05:36:21.552Z,8.60
2023-02-11T05:39:10.042Z,8.77
2023-02-11T05:41:59.914Z,8.23
2023-02-11T05:44:50.547Z,8.47
2023-02-11T05:47:39.225Z,7.63
2023-02-11T05:50:27.876Z,8.30
2023-02-11T05:53:16.685Z,7.93
2023-02-11T05:56:05.695Z,8.57
2023-02-11T05:58:55.462Z,8.13
2023-02-11T06:01:44.692Z,7.67
2023-02-11T06:04:33.165Z,8.13
2023-02-11T06:07:21.606Z,8.87
2023-02-11T06:10:11.068Z,8.37
2023-02-11T06:12:59.568Z,9.10
2023-02-11T06:15:57.270Z,8.03
2023-02-11T06:18:45.718Z,8.13
2023-02-11T06:21:43.319Z,9.37
2023-02-11T06:24:58.503Z,7.67
2023-02-11T06:27:40.967Z,8.20
2023-02-11T06:30:29.393Z,7.70
2023-02-11T06:33:19.147Z,6.20
2023-02-11T06:36:14.311Z,7.17
2023-02-11T06:39:02.815Z,7.77
2023-02-11T06:41:51.306Z,7.80
2023-02-11T06:44:39.997Z,8.23
2023-02-11T06:47:28.421Z,7.47
2023-02-11T06:50:18.275Z,7.77
2023-02-11T06:53:06.707Z,7.47
2023-02-11T06:55:55.118Z,7.10
2023-02-11T06:58:43.828Z,7.50
2023-02-11T07:01:32.348Z,7.67
2023-02-11T07:04:20.781Z,8.77
2023-02-11T07:07:10.652Z,8.33
2023-02-11T07:09:59.253Z,7.83
2023-02-11T07:12:47.654Z,7.23
2023-02-11T07:15:37.553Z,7.63
2023-02-11T07:18:26.107Z,8.10
2023-02-11T07:21:16.692Z,7.67
2023-02-11T07:24:11.033Z,7.20
2023-02-11T07:26:59.853Z,8.47
2023-02-11T07:29:48.761Z,14.57
2023-02-11T07:32:37.424Z,12.27
2023-02-11T07:35:25.882Z,11.50
2023-02-11T07:38:14.343Z,8.13
2023-02-11T07:41:05.714Z,7.93
2023-02-11T07:43:54.539Z,7.10
2023-02-11T07:46:45.375Z,8.50
2023-02-11T07:49:33.828Z,7.40
2023-02-11T07:52:22.526Z,7.93
2023-02-11T07:55:12.393Z,8.30
2023-02-11T07:58:02.221Z,8.07
2023-02-11T08:00:50.750Z,7.83
2023-02-11T08:03:39.773Z,7.77
2023-02-11T08:06:30.946Z,8.30
2023-02-11T08:09:19.393Z,8.10
2023-02-11T08:12:08.117Z,7.73
2023-02-11T08:14:57.961Z,7.30
2023-02-11T08:17:46.394Z,7.77
2023-02-11T08:20:34.959Z,8.87
2023-02-11T08:23:23.440Z,8.23
2023-02-11T08:26:14.461Z,7.63
2023-02-11T08:29:04.754Z,7.90
2023-02-11T08:31:54.614Z,8.03
2023-02-11T08:34:43.068Z,7.87
2023-02-11T08:37:33.072Z,8.17
2023-02-11T08:40:21.989Z,8.70
2023-02-11T08:43:10.484Z,8.60
2023-02-11T08:46:01.611Z,9.90
2023-02-11T08:48:51.990Z,10.47
2023-02-11T08:51:40.854Z,9.80
2023-02-11T08:54:29.340Z,9.23
2023-02-11T08:57:17.777Z,9.40
2023-02-11T09:00:07.567Z,11.90
2023-02-11T09:02:56.400Z,10.13
2023-02-11T09:05:47.560Z,10.20
2023-02-11T09:08:37.015Z,11.50
2023-02-11T09:11:29.478Z,12.20
2023-02-11T09:14:20.429Z,11.67
2023-02-11T09:17:09.139Z,12.03
2023-02-11T09:19:57.624Z,12.30
2023-02-11T09:22:48.078Z,11.20
2023-02-11T09:25:36.455Z,11.80
2023-02-11T09:28:24.934Z,13.27
2023-02-11T09:31:15.562Z,13.27
2023-02-11T09:34:05.231Z,12.50
2023-02-11T09:36:53.681Z,12.97
2023-02-11T09:39:45.271Z,12.90
2023-02-11T09:42:49.166Z,12.60
2023-02-11T09:45:37.894Z,12.53
2023-02-11T09:48:26.775Z,13.50
2023-02-11T09:51:21.113Z,12.97
2023-02-11T09:54:27.137Z,13.80
2023-02-11T09:57:28.149Z,11.97
2023-02-11T10:00:24.512Z,10.77
2023-02-11T10:03:33.638Z,13.57
2023-02-11T10:06:37.156Z,11.53
2023-02-11T10:09:47.869Z,11.67
2023-02-11T10:13:04.722Z,12.80
2023-02-11T10:16:01.026Z,12.10
2023-02-11T10:19:09.810Z,12.53
2023-02-11T10:22:05.962Z,11.37
2023-02-11T10:24:58.472Z,13.57
2023-02-11T10:27:47.072Z,11.53
2023-02-11T10:30:42.146Z,12.23
2023-02-11T10:33:35.568Z,13.83
2023-02-11T10:36:30.880Z,13.93
2023-02-11T10:39:21.794Z,14.70
2023-02-11T10:42:13.585Z,11.97
2023-02-11T10:45:06.313Z,11.93
2023-02-11T10:47:56.359Z,13.33
2023-02-11T10:50:44.913Z,13.43
2023-02-11T10:53:33.982Z,13.63
2023-02-11T10:56:28.356Z,12.80
2023-02-11T10:59:22.215Z,15.83
2023-02-11T11:02:24.201Z,13.37
2023-02-11T11:05:20.832Z,15.07
2023-02-11T11:08:10.759Z,14.30
2023-02-11T11:11:05.411Z,15.17
2023-02-11T11:13:59.983Z,14.17
2023-02-11T11:16:54.837Z,15.10
2023-02-11T11:19:43.321Z,16.70
2023-02-11T11:22:33.188Z,16.13
2023-02-11T11:25:27.851Z,16.60
2023-02-11T11:28:23.916Z,16.13
2023-02-11T11:31:19.356Z,15.37
2023-02-11T11:34:27.559Z,16.07
2023-02-11T11:37:22.457Z,14.63
2023-02-11T11:40:23.319Z,15.63
2023-02-11T13:30:57.741Z,14.60
2023-02-11T13:33:49.508Z,14.10
2023-02-11T13:36:38.006Z,14.40
2023-02-11T13:39:26.539Z,15.47
2023-02-11T13:42:18.039Z,15.13
2023-02-11T13:45:19.597Z,15.05
2023-02-11T13:48:19.012Z,14.10
2023-02-11T13:51:10.214Z,14.68
2023-02-11T13:53:59.764Z,15.27
2023-02-11T13:57:26.356Z,16.67
2023-02-11T14:00:48.552Z,17.70
2023-02-11T14:03:57.907Z,16.80
2023-02-11T14:07:39.346Z,15.95
2023-02-11T14:10:50.266Z,16.15
2023-02-11T14:14:19.851Z,16.90
2023-02-11T14:17:30.992Z,17.23
2023-02-11T14:20:45.319Z,16.00
2023-02-11T14:23:33.769Z,14.70
2023-02-11T14:26:30.908Z,15.57
2023-02-11T14:29:25.850Z,15.17
2023-02-11T14:32:29.980Z,17.90
2023-02-11T14:35:29.522Z,15.55
2023-02-11T14:38:27.879Z,17.77
2023-02-11T14:41:24.426Z,16.73
2023-02-11T14:44:18.344Z,17.07
2023-02-11T14:47:07.115Z,16.30
2023-02-11T14:49:55.995Z,20.40
2023-02-11T14:52:45.069Z,19.73
2023-02-11T14:55:37.092Z,19.52
2023-02-11T14:58:27.890Z,20.70
2023-02-11T15:01:32.423Z,19.77
2023-02-11T15:04:26.418Z,18.33
2023-02-11T15:07:15.534Z,16.05
2023-02-11T15:10:04.219Z,20.80
2023-02-11T15:12:54.282Z,16.45
2023-02-11T15:15:43.013Z,20.23
2023-02-11T15:18:38.321Z,14.70
2023-02-11T15:21:29.992Z,13.85
2023-02-11T15:24:27.659Z,17.08
2023-02-11T15:27:18.542Z,17.30
2023-02-11T15:30:29.850Z,16.58
2023-02-11T15:33:25.311Z,16.17
2023-02-11T15:36:15.246Z,14.77
2023-02-11T15:39:32.547Z,15.83
2023-02-11T15:42:23.515Z,17.45
2023-02-11T15:45:28.930Z,16.77
2023-02-11T15:48:18.870Z,18.85
2023-02-11T15:51:20.600Z,16.08
2023-02-11T15:54:18.213Z,18.83
2023-02-11T15:57:09.711Z,16.42
2023-02-11T16:00:04.301Z,17.63
2023-02-11T16:02:54.975Z,17.48
2023-02-11T16:05:43.498Z,17.23
2023-02-11T16:08:32.836Z,17.50
2023-02-11T16:11:29.619Z,16.10
2023-02-11T16:14:24.457Z,15.55
2023-02-11T16:17:22.879Z,17.60
2023-02-11T16:20:20.807Z,18.10
2023-02-11T16:23:09.784Z,19.45
2023-02-11T16:26:02.633Z,17.50
2023-02-11T16:28:51.493Z,18.33
2023-02-11T16:31:42.657Z,18.33
2023-02-11T16:34:31.220Z,18.90
2023-02-11T16:37:21.062Z,19.23
2023-02-11T16:40:11.969Z,19.23
2023-02-11T16:43:00.478Z,19.27
2023-02-11T16:45:49.520Z,20.92
2023-02-11T16:48:39.255Z,22.52
2023-02-11T16:51:27.697Z,21.15
2023-02-11T16:54:18.731Z,20.33
2023-02-11T16:57:11.005Z,22.55
2023-02-11T17:00:00.439Z,23.42
2023-02-11T17:02:48.991Z,19.73
2023-02-11T17:05:53.172Z,19.05
2023-02-11T17:08:43.083Z,19.50
2023-02-11T17:11:32.912Z,18.98
2023-02-11T17:14:22.214Z,20.75
2023-02-11T17:17:10.962Z,19.95
2023-02-11T17:19:59.587Z,19.77
2023-02-11T17:22:48.117Z,20.23
2023-02-11T17:25:37.474Z,19.38
2023-02-11T17:28:27.422Z,19.37
2023-02-11T17:31:16.299Z,19.38
2023-02-11T17:34:04.753Z,20.25
2023-02-11T17:36:53.149Z,20.43
2023-02-11T17:39:42.041Z,20.77
2023-02-11T17:42:31.262Z,20.50
2023-02-11T17:45:22.404Z,19.45
2023-02-11T17:48:11.032Z,21.67
2023-02-11T17:50:59.451Z,23.80
2023-02-11T17:53:47.860Z,22.20
2023-02-11T17:56:37.697Z,24.17
2023-02-11T17:59:26.534Z,21.70
2023-02-11T18:02:16.533Z,20.98
2023-02-11T18:05:05.368Z,22.50
2023-02-11T18:07:55.342Z,24.38
2023-02-11T18:10:44.393Z,25.58
2023-02-11T18:13:33.097Z,26.50
2023-02-11T18:16:22.043Z,27.63
2023-02-11T18:19:12.806Z,22.67
2023-02-11T18:22:01.301Z,28.88
2023-02-11T18:24:52.733Z,24.65
2023-02-11T18:27:41.691Z,55.03
2023-02-11T18:30:31.215Z,47.53
2023-02-11T18:33:20.006Z,32.83
2023-02-11T18:36:12.919Z,29.33
2023-02-11T18:39:01.379Z,29.35
2023-02-11T18:41:54.482Z,32.40
2023-02-11T18:44:42.982Z,30.65
2023-02-11T18:47:33.096Z,30.50
2023-02-11T18:50:22.221Z,29.33
2023-02-11T18:53:13.135Z,28.52
2023-02-11T18:56:01.558Z,30.67
2023-02-11T18:58:51.429Z,30.17
2023-02-11T19:01:43.216Z,28.88
2023-02-11T19:04:31.848Z,28.27
2023-02-11T19:07:20.325Z,28.47
2023-02-11T19:10:10.990Z,28.83
2023-02-11T19:12:59.845Z,28.75
2023-02-11T19:15:48.902Z,31.43
2023-02-11T19:18:38.669Z,29.45
2023-02-11T19:21:27.471Z,30.63
2023-02-11T19:24:18.984Z,29.42
2023-02-11T19:27:09.095Z,29.75
2023-02-11T19:29:57.830Z,29.35
2023-02-11T19:32:46.648Z,26.73
2023-02-11T19:35:36.418Z,28.70
2023-02-11T19:38:25.145Z,28.00
2023-02-11T19:41:15.845Z,27.95
2023-02-11T19:44:06.310Z,28.40
2023-02-11T19:46:55.001Z,26.60
2023-02-11T19:49:43.703Z,27.35
2023-02-11T19:52:32.536Z,25.73
2023-02-11T19:55:21.242Z,25.10
2023-02-11T19:58:09.978Z,26.20
2023-02-11T20:01:06.334Z,24.77
2023-02-11T20:03:57.070Z,25.52
2023-02-11T20:06:48.110Z,25.73
2023-02-11T20:09:36.870Z,29.33
2023-02-11T20:12:25.674Z,27.65
2023-02-11T20:15:14.435Z,24.30
2023-02-11T20:18:04.416Z,25.33
2023-02-11T20:20:53.185Z,25.80
2023-02-11T20:23:41.957Z,25.95
2023-02-11T20:26:32.029Z,23.30
2023-02-11T20:29:20.854Z,23.13
2023-02-11T20:32:10.994Z,28.67
2023-02-11T20:35:00.984Z,25.77
2023-02-11T20:38:03.265Z,25.25
2023-02-11T20:40:52.240Z,25.55
2023-02-11T20:43:41.266Z,24.92
2023-02-11T20:46:31.716Z,26.23
2023-02-11T20:49:21.357Z,26.13
2023-02-11T20:52:11.494Z,26.25
2023-02-11T20:55:01.621Z,23.73
2023-02-11T20:57:50.175Z,23.97
2023-02-11T21:00:38.664Z,20.77
2023-02-11T21:03:27.207Z,24.38
2023-02-11T21:06:16.462Z,22.25
2023-02-11T21:09:08.212Z,27.90
2023-02-11T21:11:57.079Z,25.45
2023-02-11T21:14:45.686Z,26.25
2023-02-11T21:17:34.417Z,27.02
2023-02-11T21:20:22.963Z,41.33
2023-02-11T21:23:11.757Z,35.80
2023-02-11T21:26:01.938Z,31.80
2023-02-11T21:28:51.936Z,28.93
2023-02-11T21:31:40.797Z,26.23
2023-02-11T21:34:29.676Z,30.98
2023-02-11T21:37:18.448Z,29.40
2023-02-11T21:40:07.686Z,27.10
2023-02-11T21:42:58.602Z,27.50
2023-02-11T21:45:47.925Z,25.90
2023-02-11T21:48:36.759Z,22.90
2023-02-11T21:51:26.453Z,22.38
2023-02-11T21:54:15.224Z,21.85
2023-02-11T21:57:04.060Z,21.98
2023-02-11T21:59:53.857Z,19.20
2023-02-11T22:02:42.424Z,22.50
2023-02-11T22:05:31.111Z,20.42
2023-02-11T22:08:20.296Z,22.50
2023-02-11T22:11:11.133Z,20.30
2023-02-11T22:14:00.094Z,19.10
2023-02-11T22:16:50.090Z,21.38
2023-02-11T22:19:38.665Z,20.83
2023-02-11T22:22:29.046Z,20.27
2023-02-11T22:25:17.547Z,19.58
2023-02-11T22:28:06.303Z,17.98
2023-02-11T22:30:56.017Z,18.30
2023-02-11T22:33:46.365Z,18.23
2023-02-11T22:36:36.729Z,18.95
2023-02-11T22:39:25.386Z,17.42
2023-02-11T22:42:13.855Z,18.10
2023-02-11T22:45:03.111Z,17.08
2023-02-11T22:47:51.585Z,18.10
2023-02-11T22:50:41.464Z,16.63
2023-02-11T22:53:29.946Z,17.93
2023-02-11T22:56:18.377Z,17.27
2023-02-11T22:59:08.719Z,17.73
2023-02-11T23:01:57.293Z,16.80
2023-02-11T23:04:47.817Z,17.50
2023-02-11T23:07:38.810Z,15.82
2023-02-11T23:10:27.295Z,15.95
2023-02-11T23:13:15.845Z,15.25
2023-02-11T23:16:06.628Z,15.90
2023-02-11T23:18:55.665Z,14.95
2023-02-11T23:21:44.199Z,15.60
2023-02-11T23:24:34.019Z,15.57
2023-02-11T23:27:22.485Z,15.68
2023-02-11T23:30:11.883Z,13.63
2023-02-11T23:33:00.367Z,13.77
2023-02-11T23:35:48.874Z,14.23
2023-02-11T23:38:37.661Z,13.88
2023-02-11T23:41:27.475Z,14.13
2023-02-11T23:44:15.871Z,14.65
2023-02-11T23:47:04.737Z,15.15
2023-02-11T23:49:53.204Z,15.32
2023-02-11T23:52:41.655Z,15.43
2023-02-11T23:55:30.161Z,13.70
2023-02-11T23:58:20.090Z,14.18
